Сообщение об ошибке

  • Warning: ini_set(): Headers already sent. You cannot change the session module's ini settings at this time in drupal_environment_initialize() (line 699 of /home/a/auditpro/2.auditpro.beget.tech/public_html/st/includes/bootstrap.inc).
  • Warning: ini_set(): Headers already sent. You cannot change the session module's ini settings at this time in drupal_environment_initialize() (line 700 of /home/a/auditpro/2.auditpro.beget.tech/public_html/st/includes/bootstrap.inc).
  • Warning: ini_set(): Headers already sent. You cannot change the session module's ini settings at this time in drupal_environment_initialize() (line 701 of /home/a/auditpro/2.auditpro.beget.tech/public_html/st/includes/bootstrap.inc).
  • Warning: ini_set(): Headers already sent. You cannot change the session module's ini settings at this time in drupal_environment_initialize() (line 704 of /home/a/auditpro/2.auditpro.beget.tech/public_html/st/includes/bootstrap.inc).
  • Warning: ini_set(): Headers already sent. You cannot change the session module's ini settings at this time in drupal_environment_initialize() (line 706 of /home/a/auditpro/2.auditpro.beget.tech/public_html/st/includes/bootstrap.inc).
  • Warning: ini_set(): Headers already sent. You cannot change the session module's ini settings at this time in include_once() (line 290 of /home/a/auditpro/2.auditpro.beget.tech/public_html/st/sites/default/settings.php).
  • Warning: ini_set(): Headers already sent. You cannot change the session module's ini settings at this time in include_once() (line 291 of /home/a/auditpro/2.auditpro.beget.tech/public_html/st/sites/default/settings.php).
  • Warning: ini_set(): Headers already sent. You cannot change the session module's ini settings at this time in include_once() (line 299 of /home/a/auditpro/2.auditpro.beget.tech/public_html/st/sites/default/settings.php).
  • Warning: ini_set(): Headers already sent. You cannot change the session module's ini settings at this time in include_once() (line 306 of /home/a/auditpro/2.auditpro.beget.tech/public_html/st/sites/default/settings.php).
  • Warning: ini_set(): Headers already sent. You cannot change the session module's ini settings at this time in drupal_settings_initialize() (line 826 of /home/a/auditpro/2.auditpro.beget.tech/public_html/st/includes/bootstrap.inc).
  • Warning: ini_set(): Headers already sent. You cannot change the session module's ini settings at this time in drupal_settings_initialize() (line 835 of /home/a/auditpro/2.auditpro.beget.tech/public_html/st/includes/bootstrap.inc).
  • Warning: session_name(): Cannot change session name when headers already sent in drupal_settings_initialize() (line 838 of /home/a/auditpro/2.auditpro.beget.tech/public_html/st/includes/bootstrap.inc).

Осколцемент

СКИДКИ НА СМАРТФОНЫ!

Карта отелей и гостиниц, располагающихся рядом с аэропортом Осколцемент :

Осколцемент Белгородская область 51° 15' 3.4884" N, 37° 46' 34.2408" E
Код аэродрома ИКАО
HJ1T
Код аэродрома RU
ХЙ1Т
Координаты
N51.25097° E037.77618°
Превышение над уровнем моря
218
Основная полоса
36R/18L
Курс магнитный
001,5/181,5
Длина основной ВПП
23
Ширина основной ВПП
23
Покрытие основной ВПП
Твёрдое
Освещение ВПП
Нет
Тип: 
Вертодром
Класс аэродрома: 
Принадлежность: 
ГА
Статус: 
Действующий
Сайт: 
E-mail аэродрома: 
Страна: 
Россия
Регион: 
Белгородская область
Город: 
Дополнительная информация: 
Групповая. Состоит из 3-х однотипных ПП с искусственным покрытием. Владелец ПП: нет данных.

Скидки на навигаторы!

Найти трансфер

С помощью этой формы Вы можете найти трансфер из аэропорта Осколцемент в город, аэропорт или вокзал:

Погода в аэропортах:

Авиационная погода в Сыктывкаре

Регион: 
Погода METAR: 
UUYY 301930Z 18006MPS 9999 -SHSN SCT015CB OVC030 M06/M08 Q1000 R18/490235 NOSIG RMK QFE741/0988
Время наблюдения
2023-01-30T19:30:00Z
Температура C
-6.0
Точка росы
-8.0
Направление ветра
180
Скорость ветра (узлы)
12
Метео видимость
6.21
Облачность
SCT
OVC
Нижняя граница облачности (футы)
1500
3000
Явления погоды
-SHSN
Условия полета
MVFR
Аэропорт подробнее: 
SCT – разбросанная отдельная облачность; OVC – сплошная облачность;
-SHSN - слабый ливневой снег;

Авиационная погода в Каяани

Регион: 
Погода METAR: 
EFKI 301920Z AUTO 36005KT 3600 -SN SCT002 OVC015 M00/M01 Q0969
Время наблюдения
2023-01-30T19:20:00Z
Температура C
0.0
Точка росы
-1.0
Направление ветра
360
Скорость ветра (узлы)
5
Метео видимость
2.24
Облачность
SCT
OVC
Нижняя граница облачности (футы)
200
1500
Явления погоды
-SN
Условия полета
IFR
SCT – разбросанная отдельная облачность; OVC – сплошная облачность;
-SN – слабый снег;

Авиационная погода в Гомеле

Регион: 
Погода METAR: 
UMGG 301930Z 20006G09MPS 2800 -SHSN BLSN SCT009 OVC016CB M01/M02 Q1000 TEMPO 2000 SHSN
Время наблюдения
2023-01-30T19:30:00Z
Температура C
-1.0
Точка росы
-2.0
Направление ветра
200
Скорость ветра (узлы)
12
Метео видимость
1.74
Облачность
SCT
OVC
Нижняя граница облачности (футы)
900
1600
Явления погоды
-SHSN BLSN
Условия полета
IFR
Аэропорт подробнее: 
SCT – разбросанная отдельная облачность; OVC – сплошная облачность;
-SHSN - слабый ливневой снег, BLSN – метель низовая или общая;

Авиационная погода в Магнитогорске

Погода METAR: 
USCM 301930Z 18006MPS 4900 BR NSC M12/M15 Q1018 R18/090060 TEMPO 0300 FZFG VV003 RMK QFE726
Время наблюдения
2023-01-30T19:30:00Z
Температура C
-12.0
Точка росы
-15.0
Направление ветра
180
Скорость ветра (узлы)
12
Метео видимость
3.04
Облачность
CLR
Нижняя граница облачности (футы)
Явления погоды
BR
Условия полета
MVFR
Аэропорт подробнее: 
CLR — нет облаков ниже 3000 м
BR – дымка (видимость от 1 до 9 км);